createdAt,value
2017-07-06T00:00:09.116Z,11.00
2017-07-06T00:02:35.793Z,16.83
2017-07-06T00:05:02.483Z,10.43
2017-07-06T00:07:29.148Z,10.85
2017-07-06T00:09:55.838Z,10.98
2017-07-06T00:12:22.500Z,10.63
2017-07-06T00:14:49.199Z,10.27
2017-07-06T00:17:15.867Z,11.35
2017-07-06T00:19:42.528Z,11.60
2017-07-06T00:22:09.219Z,11.02
2017-07-06T00:24:35.888Z,10.27
2017-07-06T00:27:02.551Z,12.20
2017-07-06T00:29:29.221Z,11.93
2017-07-06T00:31:55.889Z,11.10
2017-07-06T00:34:22.564Z,12.37
2017-07-06T00:36:49.227Z,14.82
2017-07-06T00:39:15.893Z,11.60
2017-07-06T00:41:42.571Z,11.05
2017-07-06T00:44:09.251Z,10.98
2017-07-06T00:46:35.912Z,12.07
2017-07-06T00:49:02.588Z,11.55
2017-07-06T00:51:29.253Z,12.00
2017-07-06T00:53:55.924Z,11.57
2017-07-06T00:56:22.591Z,12.02
2017-07-06T00:58:49.251Z,10.80
2017-07-06T01:01:15.924Z,11.18
2017-07-06T01:03:42.589Z,10.40
2017-07-06T01:06:09.536Z,11.57
2017-07-06T01:08:36.215Z,11.90
2017-07-06T01:11:02.880Z,11.45
2017-07-06T01:13:29.544Z,11.18
2017-07-06T01:15:56.220Z,11.77
2017-07-06T01:18:22.884Z,12.15
2017-07-06T01:20:49.552Z,11.15
2017-07-06T01:23:16.215Z,10.13
2017-07-06T01:25:42.880Z,10.85
2017-07-06T01:28:09.547Z,11.63
2017-07-06T01:30:36.216Z,10.18
2017-07-06T01:33:02.905Z,10.70
2017-07-06T01:35:29.571Z,11.75
2017-07-06T01:37:56.264Z,10.65
2017-07-06T01:40:22.940Z,10.13
2017-07-06T01:42:49.709Z,10.80
2017-07-06T01:45:16.388Z,11.00
2017-07-06T01:47:43.076Z,14.30
2017-07-06T01:50:09.745Z,11.85
2017-07-06T01:52:36.436Z,11.55
2017-07-06T01:55:03.101Z,11.35
2017-07-06T01:57:29.799Z,11.18
2017-07-06T01:59:56.471Z,12.13
2017-07-06T02:02:23.160Z,12.73
2017-07-06T02:04:49.828Z,12.57
2017-07-06T02:07:16.520Z,13.62
2017-07-06T02:09:43.192Z,12.65
2017-07-06T02:12:09.887Z,12.95
2017-07-06T02:14:36.548Z,12.05
2017-07-06T02:17:03.246Z,12.00
2017-07-06T02:19:29.912Z,11.52
2017-07-06T02:21:56.603Z,15.52
2017-07-06T02:24:23.293Z,13.62
2017-07-06T02:26:49.990Z,13.68
2017-07-06T02:29:16.660Z,14.25
2017-07-06T02:31:43.348Z,14.95
2017-07-06T02:34:10.016Z,15.27
2017-07-06T02:36:36.707Z,16.55
2017-07-06T02:39:03.377Z,14.15
2017-07-06T02:41:30.040Z,14.30
2017-07-06T02:43:56.708Z,14.02
2017-07-06T02:46:23.376Z,14.60
2017-07-06T02:48:50.048Z,15.25
2017-07-06T02:51:16.712Z,15.77
2017-07-06T02:53:43.376Z,14.13
2017-07-06T02:56:10.052Z,14.87
2017-07-06T02:58:36.722Z,15.90
2017-07-06T03:01:03.387Z,14.52
2017-07-06T03:03:30.083Z,16.40
2017-07-06T03:05:56.752Z,16.00
2017-07-06T03:08:23.440Z,15.20
2017-07-06T03:10:50.103Z,16.87
2017-07-06T03:13:16.797Z,15.98
2017-07-06T03:15:43.468Z,16.77
2017-07-06T03:18:10.159Z,16.37
2017-07-06T03:20:36.829Z,16.60
2017-07-06T03:23:03.519Z,15.82
2017-07-06T03:25:30.184Z,15.95
2017-07-06T03:27:56.877Z,16.10
2017-07-06T03:30:23.545Z,15.68
2017-07-06T03:32:50.239Z,16.05
2017-07-06T03:35:16.904Z,16.75
2017-07-06T03:37:43.595Z,17.92
2017-07-06T03:40:10.262Z,16.62
2017-07-06T03:42:36.956Z,16.77
2017-07-06T03:45:03.628Z,16.52
2017-07-06T03:47:30.340Z,16.02
2017-07-06T03:49:57.008Z,16.85
2017-07-06T03:52:23.696Z,15.80
2017-07-06T03:54:50.368Z,16.55
2017-07-06T03:57:17.036Z,15.90
2017-07-06T03:59:43.704Z,15.90
2017-07-06T04:02:10.373Z,17.75
2017-07-06T04:04:37.041Z,16.40
2017-07-06T04:07:03.712Z,16.65
2017-07-06T04:09:30.381Z,16.33
2017-07-06T04:11:57.053Z,16.60
2017-07-06T04:14:23.724Z,18.33
2017-07-06T04:16:50.395Z,17.42
2017-07-06T04:19:17.061Z,18.00
2017-07-06T04:21:43.723Z,17.30
2017-07-06T04:24:10.394Z,17.02
2017-07-06T04:26:37.068Z,17.58
2017-07-06T04:29:03.731Z,16.95
2017-07-06T04:31:30.401Z,18.40
2017-07-06T04:33:57.064Z,15.88
2017-07-06T04:36:23.732Z,16.15
2017-07-06T04:38:50.409Z,16.20
2017-07-06T04:41:17.076Z,17.00
2017-07-06T04:43:43.768Z,15.05
2017-07-06T04:46:10.430Z,15.07
2017-07-06T04:48:37.126Z,15.98
2017-07-06T04:51:03.815Z,16.15
2017-07-06T04:53:30.515Z,16.40
2017-07-06T04:55:57.181Z,15.43
2017-07-06T04:58:23.877Z,15.10
2017-07-06T05:00:50.543Z,14.90
2017-07-06T05:03:17.245Z,16.02
2017-07-06T05:05:43.928Z,15.13
2017-07-06T05:08:10.624Z,15.77
2017-07-06T05:10:37.297Z,15.95
2017-07-06T05:13:03.971Z,17.20
2017-07-06T05:15:30.643Z,16.83
2017-07-06T05:17:57.318Z,16.70
2017-07-06T05:20:23.993Z,17.20
2017-07-06T05:22:50.663Z,16.90
2017-07-06T05:25:17.571Z,17.05
2017-07-06T05:27:44.249Z,16.75
2017-07-06T05:30:10.916Z,19.93
2017-07-06T05:32:37.582Z,16.37
2017-07-06T05:35:04.248Z,16.10
2017-07-06T05:37:30.916Z,18.73
2017-07-06T05:39:57.593Z,16.33
2017-07-06T05:42:24.388Z,15.00
2017-07-06T05:44:51.056Z,14.43
2017-07-06T05:47:17.719Z,14.50
2017-07-06T05:49:44.383Z,13.20
2017-07-06T05:52:11.052Z,14.67
2017-07-06T05:54:37.716Z,13.53
2017-07-06T05:57:04.382Z,13.03
2017-07-06T05:59:31.050Z,14.03
2017-07-06T06:01:57.716Z,13.87
2017-07-06T06:04:24.385Z,13.63
2017-07-06T06:06:51.052Z,13.67
2017-07-06T06:09:17.716Z,12.97
2017-07-06T06:11:44.387Z,13.17
2017-07-06T06:14:11.076Z,13.27
2017-07-06T06:16:37.745Z,12.47
2017-07-06T06:19:04.808Z,12.37
2017-07-06T06:21:31.473Z,12.27
2017-07-06T06:23:58.139Z,12.53
2017-07-06T06:26:24.814Z,12.70
2017-07-06T06:28:51.484Z,12.60
2017-07-06T06:31:18.148Z,12.93
2017-07-06T06:33:44.821Z,12.03
2017-07-06T06:36:11.776Z,11.70
2017-07-06T06:38:38.512Z,12.80
2017-07-06T06:41:05.180Z,12.90
2017-07-06T06:43:31.844Z,12.97
2017-07-06T06:45:58.576Z,12.93
2017-07-06T06:48:25.245Z,13.10
2017-07-06T06:50:51.912Z,11.80
2017-07-06T06:53:18.580Z,11.90
2017-07-06T06:55:45.243Z,12.43
2017-07-06T06:58:11.910Z,11.40
2017-07-06T07:00:38.576Z,11.30
2017-07-06T07:03:05.244Z,11.63
2017-07-06T07:05:31.940Z,11.97
2017-07-06T07:07:58.608Z,12.17
2017-07-06T07:10:25.296Z,11.53
2017-07-06T07:12:51.968Z,11.13
2017-07-06T07:15:18.662Z,12.10
2017-07-06T07:17:45.335Z,12.03
2017-07-06T07:20:12.023Z,11.00
2017-07-06T07:22:38.693Z,10.80
2017-07-06T07:25:05.384Z,10.70
2017-07-06T07:27:32.062Z,10.37
2017-07-06T07:29:58.753Z,12.43
2017-07-06T07:32:25.421Z,11.20
2017-07-06T07:34:52.117Z,10.10
2017-07-06T07:37:18.785Z,10.03
2017-07-06T07:42:17.071Z,9.83
2017-07-06T07:44:43.736Z,10.57
2017-07-06T07:47:10.416Z,9.00
2017-07-06T07:49:37.072Z,9.30
2017-07-06T07:52:03.751Z,9.20
2017-07-06T07:54:30.416Z,10.10
2017-07-06T07:56:57.111Z,9.47
2017-07-06T07:59:23.768Z,9.80
2017-07-06T08:01:50.447Z,9.50
2017-07-06T08:04:17.108Z,9.40
2017-07-06T08:06:43.795Z,9.93
2017-07-06T08:09:10.459Z,9.57
2017-07-06T08:11:37.149Z,10.23
2017-07-06T08:14:03.807Z,9.93
2017-07-06T08:16:30.492Z,9.77
2017-07-06T08:18:57.156Z,10.00
2017-07-06T08:21:23.840Z,10.73
2017-07-06T08:23:50.496Z,9.53
2017-07-06T08:26:17.184Z,9.87
2017-07-06T08:28:43.846Z,9.77
2017-07-06T08:31:10.536Z,8.80
2017-07-06T08:33:37.196Z,8.40
2017-07-06T08:36:03.885Z,11.17
2017-07-06T08:38:30.544Z,10.50
2017-07-06T08:40:57.240Z,14.20
2017-07-06T08:43:23.893Z,9.53
2017-07-06T08:45:50.576Z,9.30
2017-07-06T08:48:17.247Z,9.20
2017-07-06T08:50:43.936Z,9.40
2017-07-06T08:53:10.591Z,9.70
2017-07-06T08:55:37.257Z,10.47
2017-07-06T08:58:03.923Z,10.53
2017-07-06T09:00:30.584Z,9.47
2017-07-06T09:02:57.242Z,8.67
2017-07-06T09:05:23.895Z,9.97
2017-07-06T09:07:50.563Z,9.10
2017-07-06T09:10:17.220Z,9.67
2017-07-06T09:12:43.889Z,10.30
2017-07-06T09:15:10.571Z,9.27
2017-07-06T09:17:37.254Z,8.07
2017-07-06T09:20:03.915Z,10.70
2017-07-06T09:22:30.599Z,10.50
2017-07-06T09:24:57.272Z,10.93
2017-07-06T09:27:23.951Z,9.40
2017-07-06T09:29:50.609Z,8.60
2017-07-06T09:32:17.292Z,8.33
2017-07-06T09:34:43.949Z,7.10
2017-07-06T09:37:10.628Z,7.53
2017-07-06T09:39:37.287Z,7.33
2017-07-06T09:42:03.976Z,7.30
2017-07-06T09:44:30.636Z,8.50
2017-07-06T09:46:57.346Z,8.50
2017-07-06T09:49:24.012Z,8.03
2017-07-06T09:51:50.703Z,8.70
2017-07-06T09:54:17.368Z,8.30
2017-07-06T09:56:44.053Z,8.33
2017-07-06T09:59:10.731Z,10.13
2017-07-06T10:01:37.416Z,9.90
2017-07-06T10:04:04.077Z,9.40
2017-07-06T10:06:30.732Z,7.70
2017-07-06T10:08:57.392Z,6.70
2017-07-06T10:11:24.048Z,8.17
2017-07-06T10:13:50.706Z,8.23
2017-07-06T10:16:17.372Z,8.10
2017-07-06T10:18:44.032Z,8.37
2017-07-06T10:21:10.687Z,7.37
2017-07-06T10:23:37.345Z,8.17
2017-07-06T10:26:04.008Z,8.10
2017-07-06T10:28:30.667Z,15.73
2017-07-06T10:30:57.331Z,8.80
2017-07-06T10:33:23.989Z,7.13
2017-07-06T10:35:50.648Z,7.77
2017-07-06T10:38:17.304Z,9.40
2017-07-06T10:40:43.960Z,9.17
2017-07-06T10:43:10.619Z,8.40
2017-07-06T10:45:37.285Z,8.63
2017-07-06T10:48:03.969Z,7.83
2017-07-06T10:50:30.627Z,10.23
2017-07-06T10:52:57.307Z,9.20
2017-07-06T10:55:23.984Z,10.60
2017-07-06T10:57:50.676Z,8.23
2017-07-06T11:00:17.337Z,9.00
2017-07-06T11:02:44.016Z,9.37
2017-07-06T11:05:10.667Z,9.00
2017-07-06T11:07:37.352Z,9.60
2017-07-06T11:10:04.009Z,8.90
2017-07-06T11:12:30.700Z,9.30
2017-07-06T11:14:57.358Z,9.47
2017-07-06T11:17:24.044Z,9.30
2017-07-06T11:19:50.701Z,9.90
2017-07-06T11:22:17.360Z,9.50
2017-07-06T11:24:44.016Z,8.70
2017-07-06T11:27:10.778Z,9.70
2017-07-06T11:29:37.436Z,12.60
2017-07-06T11:32:04.094Z,9.60
2017-07-06T11:34:30.755Z,10.37
2017-07-06T11:36:57.421Z,10.67
2017-07-06T11:39:24.088Z,10.57
2017-07-06T11:41:50.749Z,10.20
2017-07-06T11:44:17.416Z,10.63
2017-07-06T11:46:44.079Z,10.00
2017-07-06T11:49:10.751Z,10.70
2017-07-06T11:51:37.416Z,10.67
2017-07-06T11:54:04.076Z,10.03
2017-07-06T11:56:30.744Z,10.50
2017-07-06T11:58:57.400Z,9.40
2017-07-06T12:01:24.060Z,10.60
2017-07-06T12:03:50.728Z,10.03
2017-07-06T12:06:17.397Z,10.13
2017-07-06T12:08:44.060Z,10.53
2017-07-06T12:11:11.024Z,10.10
2017-07-06T12:13:37.688Z,10.87
2017-07-06T12:16:04.352Z,10.73
2017-07-06T12:18:31.017Z,10.20
2017-07-06T12:20:57.676Z,10.57
2017-07-06T12:23:24.364Z,10.60
2017-07-06T12:25:51.031Z,10.97
2017-07-06T12:28:17.728Z,12.40
2017-07-06T12:30:44.391Z,11.40
2017-07-06T12:33:11.052Z,10.17
2017-07-06T12:35:37.712Z,10.10
2017-07-06T12:38:04.375Z,9.50
2017-07-06T12:40:31.040Z,11.90
2017-07-06T12:42:57.734Z,10.03
2017-07-06T12:45:24.397Z,9.80
2017-07-06T12:47:51.064Z,10.00
2017-07-06T12:50:17.728Z,10.10
2017-07-06T12:52:44.388Z,10.23
2017-07-06T12:55:11.048Z,9.97
2017-07-06T12:57:37.709Z,9.10
2017-07-06T13:00:04.364Z,8.33
2017-07-06T13:02:31.020Z,9.87
2017-07-06T13:04:57.684Z,10.37
2017-07-06T13:07:24.353Z,11.13
2017-07-06T13:09:51.011Z,10.20
2017-07-06T13:12:17.669Z,10.53
2017-07-06T13:14:44.332Z,10.53
2017-07-06T13:17:11.001Z,10.67
2017-07-06T13:19:37.664Z,10.73
2017-07-06T13:22:04.324Z,9.80
2017-07-06T13:24:31.013Z,10.73
2017-07-06T13:26:57.681Z,10.20
2017-07-06T13:29:24.371Z,11.67
2017-07-06T13:31:51.036Z,9.73
2017-07-06T13:34:17.722Z,9.47
2017-07-06T13:36:44.384Z,10.20
2017-07-06T13:39:11.079Z,12.60
2017-07-06T13:41:37.739Z,9.57
2017-07-06T13:44:04.408Z,10.67
2017-07-06T13:46:31.071Z,10.87
2017-07-06T13:48:57.733Z,11.20
2017-07-06T13:51:24.416Z,9.80
2017-07-06T13:53:51.400Z,10.90
2017-07-06T13:56:18.098Z,10.43
2017-07-06T13:58:44.756Z,9.53
2017-07-06T14:01:11.441Z,9.13
2017-07-06T14:03:38.095Z,9.17
2017-07-06T14:06:04.780Z,9.57
2017-07-06T14:08:31.441Z,8.63
2017-07-06T14:10:58.124Z,8.97
2017-07-06T14:13:24.783Z,9.30
2017-07-06T14:15:51.459Z,8.70
2017-07-06T14:18:18.112Z,9.10
2017-07-06T14:20:44.809Z,10.07
2017-07-06T14:23:11.467Z,8.93
2017-07-06T14:25:38.148Z,8.93
2017-07-06T14:28:04.805Z,8.73
2017-07-06T14:30:31.488Z,8.60
2017-07-06T14:32:58.149Z,8.80
2017-07-06T14:35:24.835Z,8.10
2017-07-06T14:37:51.500Z,7.83
2017-07-06T14:40:18.180Z,9.47
2017-07-06T14:42:44.835Z,8.77
2017-07-06T14:45:11.512Z,8.37
2017-07-06T14:47:38.162Z,9.03
2017-07-06T14:50:04.846Z,7.90
2017-07-06T14:52:31.501Z,9.10
2017-07-06T14:54:58.174Z,9.13
2017-07-06T14:57:24.829Z,8.43
2017-07-06T14:59:51.490Z,7.63
2017-07-06T15:02:18.159Z,8.03
2017-07-06T15:04:44.824Z,9.23
2017-07-06T15:07:11.483Z,8.20
2017-07-06T15:09:38.140Z,9.10
2017-07-06T15:12:04.838Z,8.90
2017-07-06T15:14:31.504Z,9.80
2017-07-06T15:16:58.188Z,9.47
2017-07-06T15:19:24.853Z,8.60
2017-07-06T15:21:51.544Z,8.67
2017-07-06T15:24:18.202Z,9.47
2017-07-06T15:26:44.886Z,9.53
2017-07-06T15:29:11.548Z,9.17
2017-07-06T15:31:38.231Z,8.63
2017-07-06T15:34:04.887Z,10.30
2017-07-06T15:36:31.576Z,10.23
2017-07-06T15:38:58.241Z,8.57
2017-07-06T15:41:24.951Z,9.00
2017-07-06T15:43:51.617Z,8.87
2017-07-06T15:46:18.299Z,8.87
2017-07-06T15:48:44.959Z,8.87
2017-07-06T15:51:11.642Z,8.37
2017-07-06T15:53:38.312Z,8.50
2017-07-06T15:56:04.993Z,9.13
2017-07-06T15:58:31.658Z,8.83
2017-07-06T16:00:58.317Z,9.90
2017-07-06T16:03:24.985Z,10.20
2017-07-06T16:05:51.644Z,8.87
2017-07-06T16:08:18.306Z,9.37
2017-07-06T16:10:44.964Z,9.17
2017-07-06T16:13:11.629Z,8.90
2017-07-06T16:15:38.292Z,8.13
2017-07-06T16:18:04.956Z,7.70
2017-07-06T16:20:31.624Z,9.10
2017-07-06T16:22:58.286Z,8.93
2017-07-06T16:25:24.953Z,8.53
2017-07-06T16:27:51.612Z,8.30
2017-07-06T16:30:18.277Z,9.20
2017-07-06T16:32:44.940Z,8.70
2017-07-06T16:35:11.601Z,8.57
2017-07-06T16:37:38.255Z,9.30
2017-07-06T16:40:04.911Z,9.00
2017-07-06T16:42:31.623Z,9.20
2017-07-06T16:44:58.276Z,8.33
2017-07-06T16:47:24.960Z,8.87
2017-07-06T16:49:51.619Z,9.20
2017-07-06T16:52:18.306Z,9.17
2017-07-06T16:54:44.963Z,9.03
2017-07-06T16:57:11.652Z,9.00
2017-07-06T16:59:38.310Z,9.60
2017-07-06T17:02:04.991Z,9.43
2017-07-06T17:04:31.643Z,8.90
2017-07-06T17:06:58.327Z,8.80
2017-07-06T17:09:24.988Z,9.30
2017-07-06T17:11:51.663Z,8.80
2017-07-06T17:14:18.319Z,9.10
2017-07-06T17:16:44.976Z,9.70
2017-07-06T17:19:11.634Z,9.20
2017-07-06T17:21:38.299Z,10.07
2017-07-06T17:24:04.955Z,9.07
2017-07-06T17:26:31.611Z,10.20
2017-07-06T17:28:58.263Z,8.77
2017-07-06T17:31:24.920Z,8.87
2017-07-06T17:33:51.580Z,10.10
2017-07-06T17:36:18.251Z,10.07
2017-07-06T17:38:44.916Z,11.27
2017-07-06T17:41:11.581Z,11.23
2017-07-06T17:43:38.235Z,9.83
2017-07-06T17:46:04.900Z,10.50
2017-07-06T17:48:31.561Z,10.30
2017-07-06T17:50:58.224Z,10.80
2017-07-06T17:53:24.884Z,9.83
2017-07-06T17:55:51.543Z,11.30
2017-07-06T17:58:18.207Z,10.60
2017-07-06T18:00:44.875Z,10.23
2017-07-06T18:03:11.536Z,10.40
2017-07-06T18:05:38.201Z,11.80
2017-07-06T18:08:04.882Z,10.43
2017-07-06T18:10:31.544Z,10.70
2017-07-06T18:12:58.229Z,10.50
2017-07-06T18:15:24.887Z,10.87
2017-07-06T18:17:51.572Z,10.53
2017-07-06T18:20:18.232Z,10.50
2017-07-06T18:22:44.924Z,9.50
2017-07-06T18:25:11.591Z,11.40
2017-07-06T18:27:38.257Z,10.20
2017-07-06T18:30:04.920Z,9.67
2017-07-06T18:32:31.592Z,10.73
2017-07-06T18:34:58.258Z,10.40
2017-07-06T18:37:24.927Z,11.10
2017-07-06T18:39:51.592Z,11.03
2017-07-06T18:42:18.256Z,10.60
2017-07-06T18:44:45.006Z,10.80
2017-07-06T18:47:11.663Z,10.27
2017-07-06T18:49:38.327Z,11.23
2017-07-06T18:52:04.985Z,9.70
2017-07-06T18:54:31.664Z,10.50
2017-07-06T18:56:58.335Z,14.33
2017-07-06T18:59:25.007Z,11.53
2017-07-06T19:01:51.672Z,12.10
2017-07-06T19:04:18.372Z,11.10
2017-07-06T19:06:45.040Z,11.50
2017-07-06T19:09:11.731Z,11.70
2017-07-06T19:11:38.401Z,11.37
2017-07-06T19:14:05.089Z,12.00
2017-07-06T19:16:31.752Z,11.10
2017-07-06T19:21:31.656Z,12.30
2017-07-06T19:23:58.347Z,12.20
2017-07-06T19:26:25.019Z,13.13
2017-07-06T19:28:51.710Z,11.83
2017-07-06T19:31:18.376Z,11.67
2017-07-06T19:33:45.071Z,11.33
2017-07-06T19:36:11.736Z,12.20
2017-07-06T19:38:38.435Z,12.27
2017-07-06T19:41:05.096Z,12.50
2017-07-06T19:43:31.764Z,13.40
2017-07-06T19:45:58.431Z,14.07
2017-07-06T19:48:25.100Z,14.00
2017-07-06T19:50:51.789Z,14.50
2017-07-06T19:53:19.272Z,15.10
2017-07-06T19:55:45.969Z,14.10
2017-07-06T19:58:12.641Z,14.37
2017-07-06T20:00:39.332Z,17.47
2017-07-06T20:03:06.011Z,16.93
2017-07-06T20:05:32.701Z,15.60
2017-07-06T20:07:59.363Z,19.63
2017-07-06T20:10:26.060Z,15.73
2017-07-06T20:12:52.741Z,15.37
2017-07-06T20:15:19.428Z,14.60
2017-07-06T20:17:46.100Z,16.13
2017-07-06T20:20:12.792Z,15.90
2017-07-06T20:22:39.468Z,15.50
2017-07-06T20:25:06.155Z,17.20
2017-07-06T20:27:32.816Z,16.60
2017-07-06T20:29:59.508Z,16.63
2017-07-06T20:32:26.907Z,15.27
2017-07-06T20:34:53.641Z,15.17
2017-07-06T20:37:20.310Z,15.07
2017-07-06T20:39:47.009Z,14.83
2017-07-06T20:42:13.692Z,17.70
2017-07-06T20:44:40.394Z,16.40
2017-07-06T20:47:07.100Z,18.50
2017-07-06T20:49:33.991Z,18.53
2017-07-06T20:52:00.675Z,17.63
2017-07-06T20:54:27.350Z,18.87
2017-07-06T20:56:54.072Z,18.53
2017-07-06T20:59:20.755Z,17.30
2017-07-06T21:01:47.427Z,18.00
2017-07-06T21:04:14.131Z,16.85
2017-07-06T21:06:40.807Z,17.12
2017-07-06T21:09:07.472Z,17.37
2017-07-06T21:11:34.208Z,18.13
2017-07-06T21:14:00.919Z,15.38
2017-07-06T21:16:27.616Z,15.38
2017-07-06T21:18:54.287Z,15.18
2017-07-06T21:21:20.990Z,14.93
2017-07-06T21:23:47.656Z,15.23
2017-07-06T21:26:14.355Z,15.52
2017-07-06T21:28:41.042Z,16.12
2017-07-06T21:31:07.748Z,15.23
2017-07-06T21:33:34.423Z,15.30
2017-07-06T21:36:01.359Z,15.90
2017-07-06T21:38:28.043Z,15.53
2017-07-06T21:40:54.800Z,15.23
2017-07-06T21:43:21.471Z,15.43
2017-07-06T21:45:48.174Z,15.98
2017-07-06T21:48:14.878Z,16.17
2017-07-06T21:50:41.611Z,16.37
2017-07-06T21:53:08.288Z,14.55
2017-07-06T21:55:35.023Z,14.23
2017-07-06T21:58:01.751Z,14.25
2017-07-06T22:00:28.528Z,15.15
2017-07-06T22:02:55.220Z,13.90
2017-07-06T22:05:21.927Z,14.43
2017-07-06T22:07:48.607Z,14.90
2017-07-06T22:10:15.300Z,13.70
2017-07-06T22:12:42.003Z,14.20
2017-07-06T22:15:08.674Z,15.00
2017-07-06T22:17:35.352Z,14.87
2017-07-06T22:20:02.028Z,15.43
2017-07-06T22:22:28.700Z,14.98
2017-07-06T22:24:55.375Z,16.08
2017-07-06T22:27:22.089Z,16.00
2017-07-06T22:29:48.784Z,15.38
2017-07-06T22:32:15.773Z,16.05
2017-07-06T22:34:42.452Z,15.40
2017-07-06T22:37:09.127Z,15.63
2017-07-06T22:39:35.805Z,16.05
2017-07-06T22:42:02.500Z,16.00
2017-07-06T22:44:29.184Z,16.98
2017-07-06T22:46:55.865Z,15.68
2017-07-06T22:49:22.543Z,16.40
2017-07-06T22:51:49.223Z,17.40
2017-07-06T22:54:15.897Z,16.20
2017-07-06T22:56:42.600Z,15.70
2017-07-06T22:59:09.271Z,15.60
2017-07-06T23:01:35.967Z,14.90
2017-07-06T23:04:02.829Z,16.30
2017-07-06T23:06:29.552Z,16.87
2017-07-06T23:08:56.237Z,16.35
2017-07-06T23:11:28.792Z,15.40
2017-07-06T23:13:55.465Z,17.90
2017-07-06T23:16:22.171Z,15.32
2017-07-06T23:18:48.850Z,15.80
2017-07-06T23:21:15.528Z,16.45
2017-07-06T23:23:42.216Z,16.67
2017-07-06T23:26:08.892Z,16.15
2017-07-06T23:28:35.564Z,16.12
2017-07-06T23:31:02.852Z,15.88
2017-07-06T23:33:29.528Z,16.70
2017-07-06T23:35:56.208Z,17.92
2017-07-06T23:38:22.879Z,15.85
2017-07-06T23:40:49.551Z,17.23
2017-07-06T23:43:16.228Z,16.98
2017-07-06T23:45:42.905Z,16.40
2017-07-06T23:48:09.584Z,16.60
2017-07-06T23:50:36.264Z,18.25
2017-07-06T23:53:02.941Z,16.37
2017-07-06T23:55:29.628Z,15.93
2017-07-06T23:57:56.314Z,17.50
